Time;durP1;ratioP1;P1;durP2;ratioP2;P2;SDS_P1;SDS_P2;PMS_P1;PMS_P2;Temp;Humidity;BMP_temperature;BMP_pressure;BME280_temperature;BME280_humidity;BME280_pressure;Samples;Min_cycle;Max_cycle;Signal;HPM_P1;HPM_P2
2023/07/11 00:01:06;;;;;;;14.18;5.80;;;;;;;;;;1825445;78;25261;-52
2023/07/11 00:03:35;;;;;;;8.63;4.80;;;;;;;;;;1822600;78;25446;-51
2023/07/11 00:06:09;;;;;;;7.25;4.00;;;;;;;;;;1831605;77;25334;-53
2023/07/11 00:08:37;;;;;;;7.45;4.10;;;;;;;;;;1831612;78;27513;-52
2023/07/11 00:11:09;;;;;;;7.60;4.33;;;;;;;;;;1831439;78;25424;-50
2023/07/11 00:13:37;;;;;;;11.35;4.08;;;;;;;;;;1831582;78;25294;-53
2023/07/11 00:16:07;;;;;;;5.35;4.17;;;;;;;;;;1831547;77;25548;-52
2023/07/11 00:18:35;;;;;;;8.20;4.50;;;;;;;;;;1831575;78;25426;-51
2023/07/11 00:21:03;;;;;;;7.47;5.85;;;;;;;;;;1831505;78;27464;-54
2023/07/11 00:23:33;;;;;;;7.83;4.62;;;;;;;;;;1831597;78;25777;-54
2023/07/11 00:26:00;;;;;;;8.10;4.50;;;;;;;;;;1831679;78;25438;-51
2023/07/11 00:28:27;;;;;;;9.78;4.15;;;;;;;;;;1831545;77;25472;-51
2023/07/11 00:30:55;;;;;;;6.33;3.85;;;;;;;;;;1831583;77;25351;-52
2023/07/11 00:33:22;;;;;;;9.40;4.45;;;;;;;;;;1831474;77;27460;-52
2023/07/11 00:35:52;;;;;;;6.65;4.97;;;;;;;;;;1831428;77;25449;-52
2023/07/11 00:38:21;;;;;;;9.28;6.40;;;;;;;;;;1831534;78;25430;-52
2023/07/11 00:40:50;;;;;;;9.50;5.85;;;;;;;;;;1831780;77;25591;-51
2023/07/11 00:43:20;;;;;;;7.47;6.75;;;;;;;;;;1831641;78;25523;-51
2023/07/11 00:46:15;;;;;;;9.85;6.83;;;;;;;;;;1831568;78;27950;-51
2023/07/11 00:48:47;;;;;;;9.73;7.05;;;;;;;;;;1831442;77;27095;-52
2023/07/11 00:51:18;;;;;;;8.43;5.40;;;;;;;;;;1831578;78;25477;-52
2023/07/11 00:53:46;;;;;;;11.50;10.50;;;;;;;;;;1831448;77;25567;-51
2023/07/11 00:56:16;;;;;;;14.78;13.45;;;;;;;;;;1831522;78;25435;-50
2023/07/11 00:58:46;;;;;;;15.80;14.38;;;;;;;;;;1831567;77;27429;-51
2023/07/11 01:01:13;;;;;;;;;;;;;;;;;;1834121;77;25595;-50
2023/07/11 01:03:40;;;;;;;67.17;62.95;;;;;;;;;;1831318;78;25366;-50
2023/07/11 01:06:13;;;;;;;82.42;77.40;;;;;;;;;;1831453;78;26154;-51
2023/07/11 01:08:41;;;;;;;88.10;82.40;;;;;;;;;;1831570;77;25502;-51
2023/07/11 01:11:08;;;;;;;86.75;81.60;;;;;;;;;;1831491;77;28491;-51
2023/07/11 01:13:36;;;;;;;85.95;80.25;;;;;;;;;;1815196;78;25504;-51
2023/07/11 01:16:03;;;;;;;85.42;80.10;;;;;;;;;;1831530;77;25284;-53
2023/07/11 01:18:30;;;;;;;85.42;80.35;;;;;;;;;;1831411;78;25606;-51
2023/07/11 01:20:57;;;;;;;86.42;80.92;;;;;;;;;;1831485;78;25276;-52
2023/07/11 01:23:24;;;;;;;85.10;79.82;;;;;;;;;;1831393;77;27354;-53
2023/07/11 01:26:05;;;;;;;86.65;81.28;;;;;;;;;;1831367;77;25493;-51
2023/07/11 01:28:33;;;;;;;87.27;81.82;;;;;;;;;;1831544;78;25509;-51
2023/07/11 01:31:00;;;;;;;85.92;80.75;;;;;;;;;;1831435;78;25550;-52
2023/07/11 01:33:27;;;;;;;85.65;80.53;;;;;;;;;;1831550;78;25428;-52
2023/07/11 01:35:55;;;;;;;85.22;80.03;;;;;;;;;;1831459;77;27363;-53
2023/07/11 01:38:24;;;;;;;87.17;81.97;;;;;;;;;;1831402;78;25329;-52
2023/07/11 01:40:52;;;;;;;86.00;80.70;;;;;;;;;;1831571;78;25408;-50
2023/07/11 01:43:20;;;;;;;91.40;85.83;;;;;;;;;;1831370;78;25500;-51
2023/07/11 01:45:48;;;;;;;85.65;80.05;;;;;;;;;;1831458;78;25476;-50
2023/07/11 01:48:15;;;;;;;91.10;85.35;;;;;;;;;;1831421;78;27383;-52
2023/07/11 01:50:42;;;;;;;33.58;31.07;;;;;;;;;;1831381;78;25779;-53
2023/07/11 01:53:09;;;;;;;6.03;4.00;;;;;;;;;;1831433;77;25387;-52
2023/07/11 01:55:37;;;;;;;5.67;3.80;;;;;;;;;;1831418;77;25534;-50
2023/07/11 01:58:04;;;;;;;5.05;3.83;;;;;;;;;;1831467;77;25549;-51
2023/07/11 02:00:31;;;;;;;7.80;5.05;;;;;;;;;;1831441;78;27313;-50
2023/07/11 02:02:58;;;;;;;8.00;3.95;;;;;;;;;;1831377;77;25410;-51
2023/07/11 02:05:25;;;;;;;6.80;4.10;;;;;;;;;;1831429;77;25456;-51
2023/07/11 02:07:51;;;;;;;16.93;15.53;;;;;;;;;;1831416;78;25472;-50
2023/07/11 02:10:18;;;;;;;7.55;3.95;;;;;;;;;;1831426;78;25403;-52
2023/07/11 02:12:45;;;;;;;4.90;3.80;;;;;;;;;;1831386;77;27401;-50
2023/07/11 02:15:12;;;;;;;4.90;4.20;;;;;;;;;;1831337;77;25276;-50
2023/07/11 02:17:39;;;;;;;5.67;4.42;;;;;;;;;;1831457;78;25446;-53
2023/07/11 02:20:09;;;;;;;6.10;4.67;;;;;;;;;;1831353;78;25530;-51
2023/07/11 02:23:05;;;;;;;7.67;4.03;;;;;;;16.85;77.54;100161.66;1924974;74;25419;-51
2023/07/11 02:25:31;;;;;;;6.05;4.72;;;;;;;16.77;77.20;100153.85;1894765;75;25325;-50
2023/07/11 02:27:58;;;;;;;16.40;15.25;;;;;;;16.76;76.39;100146.02;1894736;75;27506;-50
2023/07/11 02:30:24;;;;;;;17.60;16.32;;;;;;;16.74;76.42;100131.34;1894647;75;25523;-54
2023/07/11 02:32:50;;;;;;;79.03;74.22;;;;;;;16.73;75.91;100139.30;1894712;75;25502;-51
2023/07/11 02:35:16;;;;;;;87.17;81.82;;;;;;;16.71;76.35;100147.06;1894653;75;25377;-54
2023/07/11 02:37:42;;;;;;;87.20;81.87;;;;;;;16.70;76.56;100142.77;1894771;75;25610;-50
2023/07/11 02:40:10;;;;;;;87.35;81.90;;;;;;;16.72;76.37;100135.56;1894765;75;28139;-51
2023/07/11 02:42:36;;;;;;;81.08;76.07;;;;;;;16.69;75.74;100133.56;1821867;78;25523;-53
2023/07/11 02:45:05;;;;;;;84.60;79.45;;;;;;;16.69;76.53;100134.92;1855549;77;25532;-50
2023/07/11 02:47:31;;;;;;;83.10;77.97;;;;;;;16.73;77.92;100149.45;1822110;78;34972;-51
2023/07/11 02:49:57;;;;;;;84.80;79.70;;;;;;;16.73;77.92;100149.45;1822024;78;25549;-52
2023/07/11 02:52:23;;;;;;;84.15;79.05;;;;;;;16.72;77.90;100156.04;1855502;77;27606;-53
2023/07/11 02:54:50;;;;;;;84.30;79.10;;;;;;;16.72;78.27;100156.86;1821866;78;25544;-51
2023/07/11 02:57:16;;;;;;;88.15;82.75;;;;;;;16.73;78.45;100171.30;1821940;78;25454;-50
2023/07/11 02:59:42;;;;;;;88.30;82.75;;;;;;;16.72;78.03;100172.42;1855550;77;25465;-51
2023/07/11 03:02:08;;;;;;;86.70;81.32;;;;;;;16.74;78.32;100175.63;1821924;78;25571;-50
2023/07/11 03:04:34;;;;;;;86.30;81.12;;;;;;;16.75;77.97;100174.45;1821996;78;27470;-51
2023/07/11 03:07:01;;;;;;;84.13;79.00;;;;;;;16.76;78.51;100174.69;1855421;77;25418;-50
2023/07/11 03:09:30;;;;;;;83.82;78.62;;;;;;;16.77;78.19;100181.72;1821955;78;25510;-53
2023/07/11 03:11:56;;;;;;;84.62;79.42;;;;;;;16.78;78.20;100177.27;1822123;78;25542;-53
2023/07/11 03:14:23;;;;;;;85.70;80.42;;;;;;;16.80;78.51;100186.48;1855534;77;25441;-50
2023/07/11 03:16:52;;;;;;;86.47;81.28;;;;;;;16.77;78.44;100193.45;1821936;78;27518;-52
2023/07/11 03:19:22;;;;;;;90.83;85.32;;;;;;;16.76;78.75;100198.69;1821969;78;25570;-51
2023/07/11 03:21:50;;;;;;;84.42;79.10;;;;;;;16.75;79.04;100203.95;1821790;78;25407;-50
2023/07/11 03:24:17;;;;;;;86.28;81.15;;;;;;;16.75;79.01;100194.94;1855469;77;25686;-50
2023/07/11 03:26:47;;;;;;;85.42;80.22;;;;;;;16.73;79.09;100188.46;1821986;78;25618;-51
2023/07/11 03:29:15;;;;;;;88.00;82.65;;;;;;;16.71;79.13;100190.77;1821939;78;28167;-50
2023/07/11 03:31:43;;;;;;;86.47;80.83;;;;;;;16.71;78.96;100200.90;1855406;77;25366;-50
2023/07/11 03:34:10;;;;;;;88.87;82.97;;;;;;;16.68;78.89;100196.92;1821552;78;25589;-52
2023/07/11 03:36:39;;;;;;;87.65;82.15;;;;;;;16.68;79.30;100187.94;1821357;78;25482;-51
2023/07/11 03:39:06;;;;;;;86.67;81.42;;;;;;;16.67;78.91;100178.97;1854866;77;25532;-52
2023/07/11 03:41:34;;;;;;;86.32;81.15;;;;;;;16.66;78.77;100180.68;1821344;78;27421;-50
2023/07/11 03:44:01;;;;;;;86.35;80.95;;;;;;;16.67;78.74;100191.81;1821298;78;25522;-50
2023/07/11 03:46:27;;;;;;;88.60;83.10;;;;;;;16.68;79.07;100204.33;1854897;77;25426;-52
2023/07/11 03:49:03;;;;;;;86.60;81.12;;;;;;;16.68;79.21;100196.14;1821361;78;25604;-51
2023/07/11 03:51:28;;;;;;;87.65;82.08;;;;;;;16.69;79.50;100214.12;1856611;77;25514;-50
2023/07/11 03:53:54;;;;;;;85.10;79.90;;;;;;;16.69;79.00;100218.22;1858203;77;27690;-50
2023/07/11 03:56:21;;;;;;;88.70;83.33;;;;;;;16.70;79.13;100213.77;1821242;78;25527;-51
2023/07/11 03:58:47;;;;;;;86.08;80.72;;;;;;;16.70;78.75;100209.67;1821342;78;25439;-50
2023/07/11 04:01:15;;;;;;;87.67;82.50;;;;;;;16.72;79.25;100212.02;1854810;77;25631;-50
2023/07/11 04:03:43;;;;;;;88.00;82.10;;;;;;;16.68;79.22;100222.86;1821343;78;25391;-50
2023/07/11 04:06:11;;;;;;;88.52;83.03;;;;;;;16.67;79.05;100229.48;1821300;78;27475;-51
2023/07/11 04:08:37;;;;;;;89.77;84.25;;;;;;;16.66;79.23;100236.66;1854787;77;25514;-52
2023/07/11 04:11:04;;;;;;;84.67;79.58;;;;;;;16.66;78.79;100242.12;1821319;78;25443;-51
2023/07/11 04:13:30;;;;;;;87.15;81.90;;;;;;;16.65;78.87;100248.72;1821300;78;25548;-50
2023/07/11 04:15:57;;;;;;;87.37;81.72;;;;;;;16.66;78.86;100248.38;1854862;77;25603;-53
2023/07/11 04:18:24;;;;;;;86.30;80.95;;;;;;;16.66;78.94;100238.81;1821314;78;27529;-50
2023/07/11 04:20:50;;;;;;;87.25;81.95;;;;;;;16.66;79.33;100237.45;1821203;78;25601;-52
2023/07/11 04:23:16;;;;;;;88.82;83.40;;;;;;;16.67;79.37;100235.50;1846099;77;25575;-53
2023/07/11 04:25:43;;;;;;;87.85;82.35;;;;;;;16.67;79.74;100233.58;1844379;77;25616;-53
2023/07/11 04:28:09;;;;;;;77.27;72.30;;;;;;;16.68;79.63;100236.52;1844374;77;25526;-51
2023/07/11 04:30:37;;;;;;;86.28;80.87;;;;;;;16.69;79.67;100238.11;1844414;77;27535;-50
2023/07/11 04:33:05;;;;;;;88.30;83.00;;;;;;;16.70;79.98;100243.00;1844433;77;25381;-52
2023/07/11 04:35:31;;;;;;;86.22;81.00;;;;;;;16.71;80.33;100250.84;1844382;77;25613;-50
2023/07/11 04:37:57;;;;;;;88.12;82.65;;;;;;;16.72;80.39;100253.80;1844423;77;27489;-50
2023/07/11 04:40:23;;;;;;;87.72;82.40;;;;;;;16.74;80.20;100260.28;1844406;77;25527;-51
2023/07/11 04:42:49;;;;;;;87.25;81.97;;;;;;;16.73;80.60;100260.84;1844374;77;27373;-50
2023/07/11 04:45:16;;;;;;;88.95;83.27;;;;;;;16.72;80.62;100268.01;1844204;77;26026;-50
2023/07/11 04:47:43;;;;;;;85.05;79.85;;;;;;;16.71;80.51;100268.59;1844378;77;25557;-53
2023/07/11 04:50:10;;;;;;;87.62;82.22;;;;;;;16.72;80.97;100281.66;1844362;77;25400;-49
2023/07/11 04:52:36;;;;;;;88.95;83.33;;;;;;;16.73;81.26;100284.63;1844374;77;25520;-49
2023/07/11 04:55:02;;;;;;;86.22;80.90;;;;;;;16.73;81.01;100272.34;1844410;77;27430;-50
2023/07/11 04:57:28;;;;;;;87.53;82.10;;;;;;;16.75;81.69;100264.58;1844277;77;25538;-52
2023/07/11 04:59:54;;;;;;;87.42;81.95;;;;;;;16.73;81.95;100262.20;1844394;77;25444;-53
2023/07/11 05:02:21;;;;;;;88.30;82.90;;;;;;;16.76;81.76;100273.80;1844329;77;25389;-49
2023/07/11 05:04:48;;;;;;;85.57;80.32;;;;;;;16.79;82.45;100279.92;1844395;77;25407;-51
2023/07/11 05:07:15;;;;;;;89.05;83.60;;;;;;;16.84;82.54;100273.97;1844311;77;27424;-50
2023/07/11 05:09:42;;;;;;;87.05;81.70;;;;;;;16.88;82.89;100281.73;1844255;77;25426;-51
2023/07/11 05:12:10;;;;;;;89.13;83.65;;;;;;;16.93;83.35;100286.93;1844354;77;25392;-49
2023/07/11 05:14:38;;;;;;;86.12;80.70;;;;;;;16.99;83.50;100284.95;1844502;77;25588;-50
2023/07/11 05:17:04;;;;;;;84.30;79.30;;;;;;;17.05;83.67;100281.37;1844387;77;25428;-51
2023/07/11 05:19:31;;;;;;;85.42;80.17;;;;;;;17.08;83.54;100273.05;1844352;77;27449;-50
2023/07/11 05:21:57;;;;;;;86.50;81.28;;;;;;;17.12;83.65;100265.73;1845872;77;25796;-50
2023/07/11 05:24:23;;;;;;;87.55;82.35;;;;;;;17.16;83.61;100261.94;1821262;78;25421;-48
2023/07/11 05:26:50;;;;;;;85.12;80.15;;;;;;;17.21;83.60;100264.17;1821172;78;25362;-49
2023/07/11 05:29:16;;;;;;;86.57;81.37;;;;;;;17.23;83.24;100252.30;1854860;77;25579;-49
2023/07/11 05:31:44;;;;;;;84.72;79.70;;;;;;;17.31;83.45;100249.96;1821254;78;27544;-50
2023/07/11 05:34:11;;;;;;;88.07;82.88;;;;;;;17.37;83.42;100247.18;1819452;78;25637;-49
2023/07/11 05:36:38;;;;;;;86.55;81.12;;;;;;;17.43;83.30;100244.95;1854801;77;25467;-50
2023/07/11 05:39:10;;;;;;;84.28;79.12;;;;;;;17.50;83.52;100250.02;1821211;78;26127;-50
2023/07/11 05:41:45;;;;;;;85.10;80.17;;;;;;;17.58;83.44;100246.86;1821232;78;25561;-49
2023/07/11 05:44:17;;;;;;;88.62;83.35;;;;;;;17.65;83.49;100244.85;1821836;77;27545;-50
2023/07/11 05:46:45;;;;;;;86.53;81.42;;;;;;;17.71;83.07;100238.74;1821170;78;25861;-50
2023/07/11 05:49:11;;;;;;;86.35;81.25;;;;;;;17.77;82.43;100236.51;1821279;78;25539;-49
2023/07/11 05:51:37;;;;;;;84.65;79.62;;;;;;;17.80;82.04;100233.64;1854782;77;25383;-52
2023/07/11 05:54:04;;;;;;;84.62;79.53;;;;;;;17.82;81.25;100234.07;1821381;78;25587;-52
2023/07/11 05:56:30;;;;;;;84.55;79.47;;;;;;;17.83;81.22;100245.24;1821229;78;27265;-49
2023/07/11 05:58:57;;;;;;;85.22;80.10;;;;;;;17.83;81.36;100256.97;1854642;77;25572;-49
2023/07/11 06:01:29;;;;;;;87.65;82.50;;;;;;;17.83;81.54;100271.23;1854790;77;25524;-51
2023/07/11 06:04:19;;;;;;;85.03;79.90;;;;;;;17.85;81.40;100273.81;1821257;78;25600;-53
2023/07/11 06:06:46;;;;;;;83.37;78.45;;;;;;;17.86;81.60;100281.44;1819613;78;25388;-53
2023/07/11 06:09:17;;;;;;;87.85;82.45;;;;;;;17.88;81.60;100280.55;1854761;77;27481;-51
2023/07/11 06:11:47;;;;;;;84.17;79.15;;;;;;;17.96;82.35;100290.47;1821212;78;25413;-53
2023/07/11 06:14:17;;;;;;;87.60;82.35;;;;;;;18.07;82.93;100286.02;1819573;78;25414;-60
2023/07/11 06:16:45;;;;;;;82.40;77.50;;;;;;;18.18;82.88;100274.50;1819664;78;25452;-53
2023/07/11 06:19:11;;;;;;;83.82;78.92;;;;;;;18.26;82.88;100270.16;1854827;77;25446;-50
2023/07/11 06:21:38;;;;;;;83.97;79.07;;;;;;;18.37;82.43;100264.10;1821188;78;27473;-50
2023/07/11 06:24:06;;;;;;;84.13;78.67;;;;;;;18.47;82.14;100262.95;1810194;78;25396;-49
2023/07/11 06:26:32;;;;;;;82.12;77.30;;;;;;;18.55;81.38;100266.59;1824104;78;25429;-49
2023/07/11 06:28:58;;;;;;;83.87;78.87;;;;;;;18.60;80.88;100273.14;1824132;78;25541;-49
2023/07/11 06:33:39;;;;;;;29.93;28.30;;;;;;;18.82;81.74;100278.45;1924951;74;26081;-53
2023/07/11 17:50:03;;;;;;;5.05;3.65;;;;;;;26.17;41.93;100237.47;1887026;76;25492;-59
2023/07/11 17:52:31;;;;;;;5.58;4.05;;;;;;;26.00;42.11;100235.12;1788066;80;25550;-59
2023/07/11 17:55:00;;;;;;;4.28;3.40;;;;;;;25.86;41.94;100233.87;1820419;78;29738;-59
2023/07/11 17:57:32;;;;;;;4.63;4.17;;;;;;;25.72;42.45;100234.23;1788164;80;25568;-57
2023/07/11 17:59:58;;;;;;;4.47;3.58;;;;;;;25.61;42.72;100239.13;1820402;78;25561;-59
2023/07/11 18:02:29;;;;;;;10.93;5.72;;;;;;;25.50;43.03;100231.53;1787945;80;25370;-59
2023/07/11 18:04:57;;;;;;;8.50;6.00;;;;;;;25.40;43.36;100231.05;1820394;78;25403;-58
2023/07/11 18:07:35;;;;;;;9.88;8.90;;;;;;;25.27;43.66;100235.73;1788055;80;27535;-58
2023/07/11 18:10:04;;;;;;;24.27;20.12;;;;;;;25.14;43.98;100234.05;1820331;78;25561;-60
2023/07/11 18:12:33;;;;;;;16.62;14.55;;;;;;;25.03;44.27;100233.38;1757199;80;25576;-60
2023/07/11 18:14:59;;;;;;;16.07;14.40;;;;;;;24.92;44.64;100236.22;1820373;78;25797;-60
2023/07/11 18:17:29;;;;;;;15.18;13.58;;;;;;;24.82;44.95;100241.25;1788049;80;25597;-59
2023/07/11 18:19:56;;;;;;;14.87;13.32;;;;;;;24.72;45.11;100241.55;1820318;78;27984;-59
2023/07/11 18:22:27;;;;;;;17.33;14.87;;;;;;;24.62;45.29;100246.56;1788159;80;25618;-59
2023/07/11 18:24:55;;;;;;;20.25;15.68;;;;;;;24.50;45.58;100240.89;1820275;78;25513;-58
2023/07/11 18:27:30;;;;;;;41.80;39.15;;;;;;;24.39;45.91;100238.17;1788142;80;25554;-57
2023/07/11 18:30:00;;;;;;;16.52;15.13;;;;;;;24.30;46.18;100241.22;1820317;78;25601;-58
2023/07/11 18:32:39;;;;;;;15.78;14.50;;;;;;;24.17;46.56;100239.50;1788024;80;27436;-59
2023/07/11 18:35:09;;;;;;;10.78;10.03;;;;;;;24.07;46.76;100241.73;1820327;78;25552;-59
2023/07/11 18:37:37;;;;;;;;;;;;;;;23.95;47.06;100239.60;1790678;80;25649;-58
2023/07/11 18:40:17;;;;;;;82.40;76.65;;;;;;;23.83;47.69;100236.70;1787942;80;25570;-58
2023/07/11 18:42:43;;;;;;;36.85;34.23;;;;;;;23.71;47.76;100232.20;1795310;78;25607;-56
2023/07/11 18:45:11;;;;;;;74.72;70.22;;;;;;;23.57;48.01;100224.75;1787934;80;27572;-57
2023/07/11 18:47:39;;;;;;;29.65;27.87;;;;;;;23.44;47.91;100232.66;1786224;80;25393;-59
2023/07/11 18:50:19;;;;;;;19.20;18.23;;;;;;;;;;1787814;80;25481;-61
2023/07/11 18:52:48;;;;;;;74.40;70.08;;;;;;;;;;1776891;80;25536;-60
2023/07/11 18:55:16;;;;;;;82.10;77.27;;;;;;;;;;1787969;80;25444;-60
2023/07/11 18:57:45;;;;;;;78.40;72.82;;;;;;;;;;1820244;78;27502;-62
2023/07/11 19:00:21;;;;;;;82.08;76.67;;;;;;;;;;1819872;78;25419;-58
2023/07/11 19:02:48;;;;;;;7.35;6.45;;;;;;;;;;1817105;78;25613;-59
2023/07/11 19:05:16;;;;;;;77.35;72.87;;;;;;;;;;1819672;78;25754;-57
2023/07/11 19:07:45;;;;;;;76.60;72.12;;;;;;;;;;1819869;78;25489;-57
2023/07/11 19:10:22;;;;;;;111.83;102.55;;;;;;;;;;1819778;78;31954;-59
2023/07/11 19:12:51;;;;;;;124.53;114.73;;;;;;;;;;1818459;78;25648;-63
2023/07/11 19:15:22;;;;;;;76.62;71.97;;;;;;;;;;1819631;78;25479;-63
2023/07/11 19:18:05;;;;;;;78.12;73.40;;;;;;;;;;1817975;78;25910;-59
2023/07/11 19:20:35;;;;;;;63.38;59.13;;;;;;;;;;1819826;78;25405;-59
2023/07/11 19:23:15;;;;;;;72.32;67.67;;;;;;;;;;1819638;78;29590;-58
2023/07/11 19:25:45;;;;;;;15.05;14.40;;;;;;;;;;1819793;78;25276;-62
2023/07/11 19:28:22;;;;;;;84.47;78.87;;;;;;;;;;1819672;78;25304;-63
2023/07/11 19:30:53;;;;;;;80.00;75.20;;;;;;;;;;1819688;78;25293;-70
2023/07/11 19:33:23;;;;;;;57.10;52.38;;;;;;;;;;1819778;78;25495;-67
2023/07/11 19:38:20;;;;;;;9.75;7.37;;;;;;;21.60;53.39;100251.64;1905550;74;26629;-67
2023/07/11 19:40:51;;;;;;;6.60;4.55;;;;;;;21.44;53.70;100245.64;1859342;76;25496;-70
2023/07/11 19:43:19;;;;;;;71.12;66.95;;;;;;;21.36;54.33;100239.89;1860013;77;27453;-63
2023/07/11 19:45:54;;;;;;;41.48;38.90;;;;;;;21.23;54.46;100238.02;1859731;77;25376;-65
2023/07/11 19:48:25;;;;;;;78.65;74.15;;;;;;;21.14;54.83;100244.45;1859891;77;25440;-66
2023/07/11 19:51:00;;;;;;;5.30;4.33;;;;;;;21.00;55.26;100240.42;1859337;77;25949;-66
2023/07/11 19:53:31;;;;;;;4.00;3.40;;;;;;;20.95;55.54;100246.28;1857756;76;25651;-62
2023/07/11 19:55:58;;;;;;;3.62;3.17;;;;;;;20.88;55.82;100244.85;1857807;76;27464;-65
2023/07/11 19:58:30;;;;;;;5.10;3.80;;;;;;;20.82;56.35;100243.05;1858544;76;25705;-63
2023/07/11 20:01:00;;;;;;;4.47;3.25;;;;;;;20.77;56.53;100253.58;1859182;77;25951;-63
2023/07/11 20:03:33;;;;;;;6.00;4.28;;;;;;;20.68;56.67;100249.19;1859328;77;25687;-69
2023/07/11 20:06:01;;;;;;;7.00;3.90;;;;;;;20.63;56.83;100244.63;1859833;77;25618;-68
2023/07/11 20:08:33;;;;;;;6.75;4.17;;;;;;;20.56;56.76;100254.16;1861208;77;27578;-68
2023/07/11 20:11:06;;;;;;;5.50;4.10;;;;;;;20.48;57.22;100256.03;1859712;77;25421;-62
2023/07/11 20:13:32;;;;;;;9.93;4.33;;;;;;;20.41;57.42;100258.11;1859810;76;25627;-63
2023/07/11 20:16:22;;;;;;;10.15;8.78;;;;;;;20.35;57.63;100258.27;1859714;76;25837;-63
2023/07/11 20:18:50;;;;;;;6.35;5.12;;;;;;;20.30;58.13;100258.02;1859799;77;25407;-64
2023/07/11 20:21:23;;;;;;;7.30;6.03;;;;;;;20.25;58.38;100252.86;1859738;77;27558;-60
2023/07/11 20:23:51;;;;;;;20.65;13.95;;;;;;;20.19;58.49;100252.19;1859789;77;25358;-64
2023/07/11 20:26:25;;;;;;;9.75;6.75;;;;;;;20.16;58.60;100252.38;1859961;77;25425;-65
2023/07/11 20:28:52;;;;;;;7.40;5.20;;;;;;;20.11;59.15;100252.12;1859875;77;25719;-65
2023/07/11 20:31:24;;;;;;;10.70;6.53;;;;;;;20.04;59.12;100249.30;1838757;77;25434;-60
2023/07/11 20:33:50;;;;;;;10.15;6.70;;;;;;;19.98;59.61;100256.86;1838869;77;28003;-63
2023/07/11 20:36:24;;;;;;;9.63;7.42;;;;;;;19.91;59.74;100247.95;1859992;76;25402;-61
2023/07/11 20:38:54;;;;;;;9.45;7.30;;;;;;;19.87;59.95;100249.85;1866169;76;25536;-67
2023/07/11 20:41:22;;;;;;;10.20;5.90;;;;;;;19.82;60.22;100252.36;1866145;76;25624;-65
2023/07/11 20:43:50;;;;;;;7.53;5.63;;;;;;;19.78;60.15;100251.51;1866434;76;25374;-64
2023/07/11 20:46:22;;;;;;;7.33;5.40;;;;;;;19.73;60.46;100248.50;1866105;76;28446;-65
2023/07/11 20:48:52;;;;;;;7.58;4.72;;;;;;;19.67;60.66;100245.86;1865662;76;25925;-64
2023/07/11 20:51:22;;;;;;;6.62;5.25;;;;;;;19.64;61.16;100243.86;1865487;76;25505;-63
2023/07/11 20:53:49;;;;;;;5.20;4.70;;;;;;;19.57;61.89;100246.51;1865520;76;25565;-63
2023/07/11 20:56:24;;;;;;;7.53;5.37;;;;;;;19.49;61.68;100244.83;1865407;76;25350;-64
2023/07/11 20:58:51;;;;;;;6.87;5.30;;;;;;;19.44;62.30;100247.89;1864815;76;27544;-62
2023/07/11 21:01:22;;;;;;;5.20;4.65;;;;;;;19.36;62.39;100246.42;1865360;76;25893;-64
2023/07/11 21:03:50;;;;;;;6.58;4.85;;;;;;;19.30;62.62;100246.52;1862363;76;25728;-63
2023/07/11 21:06:41;;;;;;;7.72;4.58;;;;;;;19.28;62.55;100250.80;1831395;78;25534;-65
2023/07/11 21:09:17;;;;;;;13.88;12.78;;;;;;;19.23;62.60;100251.31;1831575;78;25360;-66
2023/07/11 21:11:47;;;;;;;76.12;71.10;;;;;;;19.21;62.87;100252.86;1831733;78;27493;-65
2023/07/11 21:14:16;;;;;;;85.05;80.05;;;;;;;19.16;62.79;100248.47;1831531;78;25465;-68
2023/07/11 21:16:44;;;;;;;82.88;77.90;;;;;;;19.10;63.02;100247.19;1831654;78;25288;-64
2023/07/11 21:19:16;;;;;;;90.10;84.22;;;;;;;19.04;63.29;100245.34;1831471;78;25426;-58
2023/07/11 21:21:43;;;;;;;117.77;108.50;;;;;;;19.02;63.49;100245.52;1813546;78;25528;-58
2023/07/11 21:24:11;;;;;;;74.97;69.53;;;;;;;18.97;63.61;100242.50;1831615;78;27473;-58
2023/07/11 21:26:40;;;;;;;86.15;80.85;;;;;;;18.97;63.82;100247.20;1831434;78;25295;-71
2023/07/11 21:29:12;;;;;;;16.50;15.60;;;;;;;18.91;63.85;100240.43;1831463;78;25441;-64
